createdAt,value
2022-11-06T00:02:42.023Z,4.10
2022-11-06T00:06:08.140Z,3.90
2022-11-06T00:09:22.108Z,3.80
2022-11-06T00:12:30.312Z,3.60
2022-11-06T00:15:38.500Z,3.47
2022-11-06T00:18:47.186Z,3.30
2022-11-06T00:21:55.417Z,3.70
2022-11-06T00:25:07.140Z,2.97
2022-11-06T00:28:15.664Z,3.07
2022-11-06T00:31:27.478Z,3.07
2022-11-06T00:34:36.183Z,2.87
2022-11-06T00:37:44.686Z,3.10
2022-11-06T00:40:54.301Z,3.77
2022-11-06T00:44:04.228Z,3.93
2022-11-06T00:47:12.980Z,3.03
2022-11-06T00:50:21.236Z,3.47
2022-11-06T00:53:32.372Z,3.00
2022-11-06T00:56:42.952Z,3.40
2022-11-06T00:59:52.588Z,3.20
2022-11-06T01:03:04.068Z,3.00
2022-11-06T01:06:15.934Z,2.63
2022-11-06T01:09:27.165Z,3.03
2022-11-06T01:12:45.539Z,3.30
2022-11-06T01:15:54.157Z,2.50
2022-11-06T01:19:05.190Z,2.33
2022-11-06T01:22:15.842Z,1.83
2022-11-06T01:25:25.394Z,2.73
2022-11-06T01:28:36.895Z,2.70
2022-11-06T01:31:51.389Z,2.30
2022-11-06T01:34:59.631Z,2.67
2022-11-06T01:38:07.967Z,2.50
2022-11-06T01:41:20.108Z,2.40
2022-11-06T01:45:24.787Z,2.60
2022-11-06T01:48:34.319Z,2.90
2022-11-06T01:51:49.268Z,2.20
2022-11-06T01:55:07.837Z,2.83
2022-11-06T01:58:21.419Z,2.63
2022-11-06T02:01:31.228Z,2.43
2022-11-06T02:04:43.861Z,2.80
2022-11-06T02:07:53.497Z,3.00
2022-11-06T02:11:02.851Z,2.50
2022-11-06T02:14:21.018Z,3.00
2022-11-06T02:17:48.166Z,1.83
2022-11-06T02:21:27.374Z,1.97
2022-11-06T02:25:06.062Z,2.00
2022-11-06T02:28:25.967Z,3.10
2022-11-06T02:31:40.531Z,2.63
2022-11-06T02:34:52.889Z,2.27
2022-11-06T02:38:07.334Z,2.53
2022-11-06T02:41:23.085Z,2.50
2022-11-06T02:44:38.900Z,2.30
2022-11-06T02:47:54.402Z,2.53
2022-11-06T02:51:06.557Z,2.47
2022-11-06T02:54:19.599Z,2.23
2022-11-06T02:57:33.093Z,2.43
2022-11-06T03:00:48.971Z,2.70
2022-11-06T03:04:04.135Z,1.83
2022-11-06T03:07:19.661Z,2.00
2022-11-06T03:10:35.705Z,2.23
2022-11-06T03:13:55.660Z,1.90
2022-11-06T03:17:16.044Z,2.07
2022-11-06T03:20:36.581Z,1.73
2022-11-06T03:23:54.165Z,1.90
2022-11-06T03:27:08.563Z,1.57
2022-11-06T03:30:17.222Z,1.63
2022-11-06T03:33:37.274Z,2.00
2022-11-06T03:36:51.660Z,1.47
2022-11-06T03:40:10.577Z,1.90
2022-11-06T03:43:27.396Z,1.67
2022-11-06T03:46:41.358Z,1.37
2022-11-06T03:49:58.950Z,1.50
2022-11-06T03:53:14.521Z,1.70
2022-11-06T03:56:30.712Z,1.80
2022-11-06T04:04:58.545Z,1.53
2022-11-06T04:08:28.176Z,1.77
2022-11-06T04:11:57.636Z,1.60
2022-11-06T04:15:13.742Z,2.00
2022-11-06T04:18:22.263Z,2.13
2022-11-06T04:21:52.800Z,1.73
2022-11-06T04:25:38.073Z,1.80
2022-11-06T04:28:58.333Z,1.90
2022-11-06T04:32:18.388Z,1.60
2022-11-06T04:35:36.122Z,1.60
2022-11-06T04:39:00.346Z,1.90
2022-11-06T04:42:21.678Z,1.93
2022-11-06T04:45:36.115Z,1.87
2022-11-06T04:48:47.920Z,1.63
2022-11-06T04:51:57.861Z,1.80
2022-11-06T04:55:09.682Z,1.20
2022-11-06T04:58:17.937Z,0.97
2022-11-06T05:01:27.402Z,1.20
2022-11-06T05:04:35.951Z,1.40
2022-11-06T05:07:45.103Z,1.20
2022-11-06T05:10:54.918Z,1.30
2022-11-06T05:14:03.257Z,1.20
2022-11-06T05:17:11.888Z,1.57
2022-11-06T05:20:20.821Z,1.70
2022-11-06T05:23:28.014Z,1.90
2022-11-06T05:26:37.644Z,1.90
2022-11-06T05:29:49.278Z,1.73
2022-11-06T05:32:58.076Z,2.40
2022-11-06T05:36:07.995Z,2.27
2022-11-06T05:39:20.673Z,1.90
2022-11-06T05:42:30.664Z,2.40
2022-11-06T05:45:39.065Z,2.63
2022-11-06T05:48:47.266Z,2.37
2022-11-06T05:51:56.107Z,2.23
2022-11-06T05:55:05.408Z,3.50
2022-11-06T05:58:18.557Z,2.30
2022-11-06T06:01:27.660Z,2.27
2022-11-06T06:04:36.393Z,2.60
2022-11-06T06:07:47.471Z,3.53
2022-11-06T06:10:59.100Z,3.40
2022-11-06T06:14:08.851Z,3.40
2022-11-06T06:17:17.555Z,4.57
2022-11-06T06:20:25.941Z,3.80
2022-11-06T06:23:34.128Z,4.30
2022-11-06T06:26:42.573Z,3.07
2022-11-06T06:29:52.886Z,2.53
2022-11-06T06:33:06.729Z,5.17
2022-11-06T06:36:17.161Z,2.57
2022-11-06T06:39:25.409Z,2.33
2022-11-06T06:42:34.344Z,2.10
2022-11-06T06:45:44.122Z,2.70
2022-11-06T06:48:52.421Z,2.97
2022-11-06T06:52:00.606Z,2.67
2022-11-06T06:55:10.066Z,2.73
2022-11-06T06:58:18.424Z,2.83
2022-11-06T07:01:28.186Z,2.83
2022-11-06T07:04:36.473Z,3.30
2022-11-06T07:07:44.739Z,4.20
2022-11-06T07:10:53.139Z,3.43
2022-11-06T07:14:01.664Z,4.47
2022-11-06T07:17:11.283Z,4.50
2022-11-06T07:20:19.850Z,6.37
2022-11-06T07:23:28.031Z,5.67
2022-11-06T07:26:38.386Z,6.17
2022-11-06T07:29:46.891Z,7.60
2022-11-06T07:32:56.979Z,7.57
2022-11-06T07:36:07.232Z,6.77
2022-11-06T07:39:15.522Z,7.70
2022-11-06T07:42:23.723Z,6.73
2022-11-06T07:45:43.116Z,6.23
2022-11-06T07:48:55.708Z,6.90
2022-11-06T07:52:06.026Z,6.77
2022-11-06T07:55:14.234Z,6.83
2022-11-06T07:58:24.353Z,6.97
2022-11-06T08:01:33.013Z,6.33
2022-11-06T08:04:43.442Z,6.70
2022-11-06T08:07:57.764Z,7.03
2022-11-06T08:11:07.596Z,6.73
2022-11-06T08:18:01.418Z,5.20
2022-11-06T08:21:11.349Z,4.93
2022-11-06T08:24:22.168Z,4.73
2022-11-06T08:27:30.872Z,4.60
2022-11-06T08:30:39.235Z,4.50
2022-11-06T08:33:47.868Z,3.97
2022-11-06T08:36:57.716Z,3.53
2022-11-06T08:40:08.774Z,4.17
2022-11-06T08:43:18.974Z,3.03
2022-11-06T08:46:27.577Z,3.33
2022-11-06T08:49:35.938Z,3.83
2022-11-06T08:52:47.021Z,3.27
2022-11-06T08:55:55.850Z,2.93
2022-11-06T08:59:04.498Z,3.33
2022-11-06T09:02:15.318Z,3.20
2022-11-06T09:05:23.862Z,3.10
2022-11-06T09:08:34.786Z,2.63
2022-11-06T09:11:43.512Z,2.90
2022-11-06T09:14:52.438Z,3.20
2022-11-06T09:18:01.210Z,3.03
2022-11-06T09:21:12.113Z,3.40
2022-11-06T09:24:43.177Z,3.03
2022-11-06T09:27:58.885Z,2.80
2022-11-06T09:31:08.218Z,3.07
2022-11-06T09:34:16.617Z,2.30
2022-11-06T09:37:25.050Z,2.57
2022-11-06T09:40:39.284Z,2.27
2022-11-06T09:44:13.972Z,2.10
2022-11-06T09:47:33.086Z,1.67
2022-11-06T09:50:50.406Z,2.23
2022-11-06T09:54:07.274Z,1.60
2022-11-06T09:57:28.580Z,1.93
2022-11-06T10:00:37.295Z,2.00
2022-11-06T10:03:56.020Z,1.87
2022-11-06T10:07:05.467Z,1.60
2022-11-06T10:10:19.585Z,1.63
2022-11-06T10:13:57.149Z,1.70
2022-11-06T10:17:22.071Z,1.80
2022-11-06T10:20:35.968Z,2.00
2022-11-06T10:23:51.316Z,1.60
2022-11-06T10:26:59.946Z,1.50
2022-11-06T10:30:15.166Z,1.93
2022-11-06T10:33:41.994Z,1.83
2022-11-06T10:36:56.396Z,1.90
2022-11-06T10:40:13.319Z,1.70
2022-11-06T10:43:31.668Z,1.80
2022-11-06T10:46:49.669Z,2.10
2022-11-06T10:50:02.183Z,2.27
2022-11-06T10:53:26.313Z,1.97
2022-11-06T10:56:55.470Z,1.80
2022-11-06T11:00:07.017Z,1.80
2022-11-06T11:03:28.071Z,2.00
2022-11-06T11:06:42.358Z,2.40
2022-11-06T11:09:51.016Z,2.43
2022-11-06T11:13:06.915Z,2.80
2022-11-06T11:16:19.708Z,3.20
2022-11-06T11:19:38.218Z,2.53
2022-11-06T11:22:47.394Z,3.37
2022-11-06T11:26:13.373Z,3.10
2022-11-06T11:29:27.771Z,3.43
2022-11-06T11:32:36.094Z,3.17
2022-11-06T11:35:51.548Z,3.00
2022-11-06T11:39:01.028Z,2.70
2022-11-06T11:42:26.909Z,2.40
2022-11-06T11:45:35.292Z,2.57
2022-11-06T11:48:47.104Z,2.17
2022-11-06T11:51:59.762Z,2.50
2022-11-06T11:55:18.213Z,1.77
2022-11-06T11:58:30.741Z,2.13
2022-11-06T12:01:42.837Z,1.90
2022-11-06T12:04:56.401Z,1.83
2022-11-06T12:08:14.237Z,1.70
2022-11-06T12:11:27.466Z,1.83
2022-11-06T12:14:38.549Z,1.90
2022-11-06T12:17:54.259Z,1.83
2022-11-06T12:21:08.636Z,1.47
2022-11-06T12:24:24.624Z,1.77
2022-11-06T12:27:40.062Z,1.73
2022-11-06T12:30:58.052Z,1.53
2022-11-06T12:34:20.094Z,1.60
2022-11-06T12:37:43.257Z,1.57
2022-11-06T12:41:04.831Z,1.77
2022-11-06T12:44:17.240Z,1.37
2022-11-06T12:47:42.988Z,1.80
2022-11-06T12:51:00.708Z,1.20
2022-11-06T12:54:38.623Z,1.63
2022-11-06T12:58:08.511Z,1.20
2022-11-06T13:01:31.194Z,1.13
2022-11-06T13:04:55.385Z,1.10
2022-11-06T13:08:28.774Z,1.63
2022-11-06T13:11:48.786Z,1.50
2022-11-06T13:15:16.146Z,1.30
2022-11-06T13:18:32.302Z,1.00
2022-11-06T13:22:10.833Z,1.30
2022-11-06T13:25:28.885Z,1.70
2022-11-06T13:28:44.310Z,1.23
2022-11-06T13:32:00.540Z,1.23
2022-11-06T13:35:18.282Z,1.53
2022-11-06T13:38:33.840Z,1.60
2022-11-06T13:41:42.191Z,1.47
2022-11-06T13:44:53.172Z,1.40
2022-11-06T13:48:24.516Z,1.20
2022-11-06T13:51:48.644Z,1.27
2022-11-06T13:55:11.976Z,1.17
2022-11-06T13:58:49.543Z,1.30
2022-11-06T14:02:21.149Z,1.10
2022-11-06T14:06:05.447Z,1.00
2022-11-06T14:09:21.099Z,1.27
2022-11-06T14:12:30.450Z,1.00
2022-11-06T14:15:42.213Z,1.10
2022-11-06T14:18:58.265Z,1.00
2022-11-06T14:22:32.061Z,1.00
2022-11-06T14:25:59.137Z,1.00
2022-11-06T14:30:01.213Z,1.00
2022-11-06T14:33:33.708Z,1.10
2022-11-06T14:36:42.389Z,1.17
2022-11-06T14:40:15.075Z,1.17
2022-11-06T14:43:30.818Z,1.50
2022-11-06T14:46:39.606Z,1.13
2022-11-06T14:49:54.911Z,1.40
2022-11-06T14:53:17.475Z,1.50
2022-11-06T14:56:31.907Z,1.30
2022-11-06T14:59:43.452Z,1.30
2022-11-06T15:02:55.531Z,1.90
2022-11-06T15:06:22.314Z,1.00
2022-11-06T15:09:47.727Z,1.10
2022-11-06T15:13:13.413Z,1.00
2022-11-06T15:16:25.387Z,1.00
2022-11-06T15:19:42.589Z,1.20
2022-11-06T15:23:14.002Z,1.13
2022-11-06T15:26:31.290Z,1.03
2022-11-06T15:29:58.588Z,1.13
2022-11-06T15:33:17.004Z,1.40
2022-11-06T15:36:27.529Z,1.30
2022-11-06T15:39:42.911Z,2.30
2022-11-06T15:42:51.938Z,2.30
2022-11-06T15:46:19.360Z,2.63
2022-11-06T15:49:28.197Z,3.30
2022-11-06T15:52:36.896Z,3.33
2022-11-06T15:55:53.592Z,2.43
2022-11-06T15:59:12.934Z,2.57
2022-11-06T16:02:23.884Z,3.53
2022-11-06T16:05:37.591Z,5.10
2022-11-06T16:08:46.873Z,4.67
2022-11-06T16:11:57.056Z,5.63
2022-11-06T16:15:06.373Z,4.20
2022-11-06T16:18:23.739Z,4.43
2022-11-06T16:21:35.477Z,5.73
2022-11-06T16:24:50.132Z,4.37
2022-11-06T16:27:58.951Z,3.90
2022-11-06T16:31:14.608Z,7.73
2022-11-06T16:34:44.339Z,28.77
2022-11-06T16:37:53.146Z,30.63
2022-11-06T16:41:01.613Z,30.53
2022-11-06T16:44:30.884Z,17.33
2022-11-06T16:47:40.168Z,11.57
2022-11-06T16:50:53.362Z,8.60
2022-11-06T16:54:03.690Z,7.23
2022-11-06T16:57:17.788Z,7.30
2022-11-06T17:00:31.164Z,6.60
2022-11-06T17:03:48.108Z,6.77
2022-11-06T17:06:59.649Z,7.67
2022-11-06T17:10:41.437Z,7.70
2022-11-06T17:13:52.695Z,8.03
2022-11-06T17:17:03.358Z,7.30
2022-11-06T17:20:16.415Z,6.33
2022-11-06T17:23:29.299Z,6.53
2022-11-06T17:26:44.650Z,6.27
2022-11-06T17:29:53.254Z,5.73
2022-11-06T17:33:01.567Z,6.70
2022-11-06T17:36:18.610Z,6.67
2022-11-06T17:39:28.483Z,6.00
2022-11-06T17:42:37.846Z,6.40
2022-11-06T17:45:49.724Z,8.97
2022-11-06T17:48:58.597Z,6.47
2022-11-06T17:52:07.195Z,7.47
2022-11-06T17:55:17.148Z,6.63
2022-11-06T17:58:25.342Z,6.40
2022-11-06T18:01:33.989Z,5.50
2022-11-06T18:04:42.949Z,6.03
2022-11-06T18:07:51.438Z,9.40
2022-11-06T18:11:03.883Z,7.97
2022-11-06T18:14:13.315Z,8.60
2022-11-06T18:17:25.007Z,10.87
2022-11-06T18:20:33.330Z,12.80
2022-11-06T18:23:41.558Z,10.67
2022-11-06T18:26:51.560Z,5.87
2022-11-06T18:29:59.953Z,4.90
2022-11-06T18:33:08.239Z,4.63
2022-11-06T18:36:17.706Z,4.90
2022-11-06T18:39:25.970Z,4.20
2022-11-06T18:42:36.571Z,3.70
2022-11-06T18:45:44.813Z,5.90
2022-11-06T18:48:53.442Z,6.40
2022-11-06T18:52:01.640Z,5.43
2022-11-06T18:55:10.779Z,6.07
2022-11-06T18:58:21.501Z,7.57
2022-11-06T19:01:30.012Z,23.47
2022-11-06T19:04:38.445Z,17.50
2022-11-06T19:07:51.999Z,6.83
2022-11-06T19:11:04.865Z,8.53
2022-11-06T19:14:14.472Z,6.70
2022-11-06T19:17:22.957Z,7.93
2022-11-06T19:20:32.442Z,8.30
2022-11-06T19:23:45.697Z,6.13
2022-11-06T19:26:54.104Z,5.23
2022-11-06T19:30:04.026Z,4.83
2022-11-06T19:33:13.900Z,11.43
2022-11-06T19:36:23.082Z,14.03
2022-11-06T19:39:31.450Z,10.30
2022-11-06T19:42:40.296Z,9.63
2022-11-06T19:45:52.572Z,7.33
2022-11-06T19:49:01.023Z,8.27
2022-11-06T19:52:42.895Z,8.20
2022-11-06T19:55:40.235Z,7.33
2022-11-06T19:58:50.168Z,6.97
2022-11-06T20:02:00.054Z,11.70
2022-11-06T20:05:09.345Z,16.27
2022-11-06T20:08:17.676Z,14.40
2022-11-06T20:11:26.292Z,7.73
2022-11-06T20:14:34.933Z,6.70
2022-11-06T20:17:44.647Z,7.63
2022-11-06T20:20:53.184Z,5.83
2022-11-06T20:24:01.626Z,4.87
2022-11-06T20:27:13.934Z,4.50
2022-11-06T20:30:22.490Z,3.07
2022-11-06T20:33:32.178Z,3.80
2022-11-06T20:36:43.593Z,3.73
2022-11-06T20:39:54.210Z,3.30
2022-11-06T20:43:03.407Z,2.50
2022-11-06T20:46:14.583Z,3.10
2022-11-06T20:49:24.784Z,2.37
2022-11-06T20:52:34.069Z,2.53
2022-11-06T20:55:42.456Z,1.60
2022-11-06T20:58:54.064Z,1.33
2022-11-06T21:02:02.530Z,1.30
2022-11-06T21:05:14.867Z,1.23
2022-11-06T21:08:23.532Z,1.50
2022-11-06T21:11:32.079Z,1.20
2022-11-06T21:14:40.677Z,1.30
2022-11-06T21:17:49.294Z,1.30
2022-11-06T21:21:02.705Z,1.00
2022-11-06T21:24:11.696Z,1.00
2022-11-06T21:27:25.563Z,1.10
2022-11-06T21:30:34.317Z,1.40
2022-11-06T21:33:50.155Z,1.73
2022-11-06T21:37:02.831Z,1.20
2022-11-06T21:40:17.535Z,1.30
2022-11-06T21:43:25.928Z,1.00
2022-11-06T21:46:41.179Z,1.13
2022-11-06T21:49:54.844Z,0.80
2022-11-06T21:53:22.024Z,0.73
2022-11-06T21:56:30.753Z,0.93
2022-11-06T21:59:41.779Z,1.00
2022-11-06T22:02:51.193Z,0.50
2022-11-06T22:06:07.002Z,0.80
2022-11-06T22:09:21.977Z,0.80
2022-11-06T22:12:34.941Z,1.30
2022-11-06T22:15:43.644Z,1.93
2022-11-06T22:18:52.024Z,1.70
2022-11-06T22:22:00.289Z,5.13
2022-11-06T22:25:10.971Z,5.03
2022-11-06T22:28:19.197Z,4.70
2022-11-06T22:31:29.252Z,3.30
2022-11-06T22:34:37.423Z,3.10
2022-11-06T22:37:45.687Z,1.90
2022-11-06T22:40:57.347Z,6.10
2022-11-06T22:44:06.527Z,4.00
2022-11-06T22:47:15.035Z,4.90
2022-11-06T22:50:23.340Z,2.33
2022-11-06T22:53:34.117Z,1.57
2022-11-06T22:56:43.820Z,1.20
2022-11-06T22:59:52.142Z,1.00
2022-11-06T23:03:00.565Z,0.60
2022-11-06T23:06:11.006Z,0.70
2022-11-06T23:09:19.512Z,0.70
2022-11-06T23:12:29.342Z,0.83
2022-11-06T23:15:38.167Z,0.87
2022-11-06T23:18:46.545Z,0.60
2022-11-06T23:22:15.362Z,0.57
2022-11-06T23:25:24.121Z,0.60
2022-11-06T23:28:34.398Z,0.60
2022-11-06T23:31:43.347Z,0.60
2022-11-06T23:34:53.190Z,0.60
2022-11-06T23:38:02.255Z,0.60
2022-11-06T23:41:32.425Z,0.53
2022-11-06T23:44:59.771Z,0.50
2022-11-06T23:48:13.406Z,0.70
2022-11-06T23:51:23.382Z,0.43
2022-11-06T23:54:31.642Z,0.50
2022-11-06T23:57:40.786Z,0.50
